Time;durP1;ratioP1;P1;durP2;ratioP2;P2;SDS_P1;SDS_P2;PMS_P1;PMS_P2;Temp;Humidity;BMP_temperature;BMP_pressure;BME280_temperature;BME280_humidity;BME280_pressure;Samples;Min_cycle;Max_cycle;Signal;HPM_P1;HPM_P2
2023/01/10 00:02:59;;;;;;;;;43.25;39.50;;;;;;;;6488763;39;8922;-63
2023/01/10 00:09:03;;;;;;;;;48.25;41.50;;;;;;;;6489657;39;8931;-62
2023/01/10 00:15:06;;;;;;;;;45.75;35.00;;;;;;;;6488553;46;8910;-63
2023/01/10 00:21:09;;;;;;;;;56.50;45.25;;;;;;;;6526022;31;8899;-63
2023/01/10 00:27:19;;;;;;;;;39.00;36.25;;;;;;;;6489469;39;8926;-61
2023/01/10 00:33:23;;;;;;;;;47.75;34.75;;;;;;;;6488354;39;8872;-62
2023/01/10 00:39:26;;;;;;;;;45.50;40.25;;;;;;;;6489230;39;8887;-61
2023/01/10 00:45:29;;;;;;;;;45.00;39.75;;;;;;;;6488646;39;9015;-61
2023/01/10 00:51:32;;;;;;;;;49.00;43.00;;;;;;;;6487829;39;8900;-61
2023/01/10 00:57:36;;;;;;;;;35.25;32.00;;;;;;;;6489206;39;8884;-64
2023/01/10 01:03:39;;;;;;;;;48.25;40.00;;;;;;;;6488077;39;8959;-62
2023/01/10 01:16:04;;;;;;;;;51.00;39.25;;;;;;;;6487738;46;8951;-61
2023/01/10 01:22:06;;;;;;;;;37.75;32.25;;;;;;;;6487633;46;8876;-61
2023/01/10 01:28:12;;;;;;;;;46.50;39.50;;;;;;;;6488998;39;8876;-63
2023/01/10 01:34:15;;;;;;;;;50.75;36.75;;;;;;;;6487267;39;10017;-62
2023/01/10 01:40:20;;;;;;;;;29.50;26.50;;;;;;;;6487794;46;8902;-62
2023/01/10 01:46:23;;;;;;;;;39.00;34.25;;;;;;;;6487885;39;8888;-61
2023/01/10 01:52:29;;;;;;;;;38.00;32.00;;;;;;;;6487668;31;8920;-63
2023/01/10 01:58:42;;;;;;;;;38.50;29.75;;;;;;;;6487983;39;9518;-62
2023/01/10 02:04:52;;;;;;;;;48.00;42.25;;;;;;;;6487028;46;9070;-62
2023/01/10 02:11:08;;;;;;;;;42.50;37.75;;;;;;;;6488232;46;8968;-62
2023/01/10 02:17:11;;;;;;;;;48.75;43.75;;;;;;;;6487716;39;9535;-66
2023/01/10 02:23:52;;;;;;;;;47.00;39.50;;;;;;;;6487464;46;8876;-61
2023/01/10 02:30:21;;;;;;;;;66.50;53.00;;;;;;;;6487885;39;8872;-63
2023/01/10 02:36:35;;;;;;;;;72.00;58.00;;;;;;;;6488707;31;9929;-61
2023/01/10 02:42:51;;;;;;;;;74.25;59.75;;;;;;;;6487720;39;9280;-62
2023/01/10 02:48:54;;;;;;;;;74.00;54.50;;;;;;;;6487871;47;8907;-61
2023/01/10 02:55:01;;;;;;;;;60.00;46.00;;;;;;;;6487470;47;8888;-62
2023/01/10 03:01:28;;;;;;;;;53.50;47.25;;;;;;;;6487349;39;9535;-62
2023/01/10 03:07:49;;;;;;;;;51.50;41.25;;;;;;;;6488039;39;8944;-62
2023/01/10 03:13:59;;;;;;;;;48.00;41.00;;;;;;;;6487144;47;8881;-62
2023/01/10 03:20:05;;;;;;;;;90.00;67.75;;;;;;;;6487669;47;8857;-62
2023/01/10 03:26:09;;;;;;;;;96.33;74.67;;;;;;;;6486981;46;8937;-61
2023/01/10 03:32:16;;;;;;;;;95.33;73.00;;;;;;;;6487268;39;8905;-61
2023/01/10 03:38:38;;;;;;;;;69.75;54.75;;;;;;;;6487152;39;8841;-61
2023/01/10 03:45:03;;;;;;;;;51.00;46.00;;;;;;;;6489616;39;9535;-61
2023/01/10 03:51:08;;;;;;;;;47.00;41.25;;;;;;;;6488676;46;8856;-62
2023/01/10 03:57:21;;;;;;;;;58.75;47.50;;;;;;;;6488748;46;8936;-60
2023/01/10 04:03:24;;;;;;;;;60.00;50.25;;;;;;;;6489161;39;9120;-62
2023/01/10 04:09:28;;;;;;;;;45.75;41.25;;;;;;;;6488364;46;8916;-61
2023/01/10 04:15:31;;;;;;;;;44.75;42.25;;;;;;;;6489196;39;8920;-62
2023/01/10 04:21:34;;;;;;;;;46.67;44.33;;;;;;;;6489050;31;8998;-62
2023/01/10 04:27:39;;;;;;;;;51.50;44.25;;;;;;;;6488052;39;9081;-62
2023/01/10 04:33:42;;;;;;;;;73.00;60.00;;;;;;;;6488820;31;8878;-62
2023/01/10 04:39:44;;;;;;;;;75.50;58.50;;;;;;;;6488949;31;8988;-62
2023/01/10 04:45:48;;;;;;;;;62.75;50.25;;;;;;;;6488850;39;8838;-62
2023/01/10 04:52:01;;;;;;;;;49.00;38.00;;;;;;;;5416869;36;10008973;-61
2023/01/10 04:58:05;;;;;;;;;61.50;49.00;;;;;;;;6217719;31;10000938;-60
2023/01/10 05:04:08;;;;;;;;;57.25;49.50;;;;;;;;6470746;46;9110;-61
